createdAt,value
2018-06-28T00:02:25.402Z,7.28
2018-06-28T00:04:53.567Z,4.00
2018-06-28T00:07:21.695Z,7.80
2018-06-28T00:09:49.846Z,2.98
2018-06-28T00:12:18.005Z,2.83
2018-06-28T00:14:46.158Z,2.58
2018-06-28T00:17:14.294Z,3.10
2018-06-28T00:19:42.442Z,3.00
2018-06-28T00:22:10.561Z,3.90
2018-06-28T00:24:38.745Z,2.83
2018-06-28T00:27:06.902Z,2.80
2018-06-28T00:29:35.042Z,2.70
2018-06-28T00:32:03.182Z,2.80
2018-06-28T00:34:31.335Z,5.67
2018-06-28T00:36:59.466Z,2.70
2018-06-28T00:39:27.602Z,2.90
2018-06-28T00:41:55.770Z,3.58
2018-06-28T00:44:23.926Z,3.00
2018-06-28T00:46:52.318Z,2.90
2018-06-28T00:49:20.466Z,3.12
2018-06-28T00:51:48.610Z,3.30
2018-06-28T00:54:16.764Z,3.00
2018-06-28T00:56:44.906Z,2.60
2018-06-28T00:59:13.069Z,3.42
2018-06-28T01:01:41.277Z,2.85
2018-06-28T01:04:09.454Z,3.30
2018-06-28T01:06:37.629Z,3.05
2018-06-28T01:09:23.435Z,2.85
2018-06-28T01:11:51.615Z,3.17
2018-06-28T01:14:19.793Z,3.10
2018-06-28T01:16:47.981Z,3.30
2018-06-28T01:19:16.170Z,3.87
2018-06-28T01:21:44.353Z,3.30
2018-06-28T01:24:12.528Z,3.60
2018-06-28T01:26:40.694Z,3.57
2018-06-28T01:29:08.849Z,4.90
2018-06-28T01:31:37.014Z,2.97
2018-06-28T01:34:05.518Z,3.63
2018-06-28T01:36:33.682Z,7.90
2018-06-28T01:39:01.837Z,4.53
2018-06-28T01:41:41.575Z,3.07
2018-06-28T01:44:09.733Z,7.73
2018-06-28T01:46:37.897Z,3.80
2018-06-28T01:49:06.046Z,4.60
2018-06-28T01:51:34.214Z,4.47
2018-06-28T01:54:02.373Z,3.90
2018-06-28T01:56:30.538Z,5.60
2018-06-28T01:58:58.666Z,6.53
2018-06-28T02:01:26.793Z,4.10
2018-06-28T02:03:54.914Z,4.07
2018-06-28T02:06:23.038Z,4.63
2018-06-28T02:08:51.153Z,4.23
2018-06-28T02:11:19.282Z,3.50
2018-06-28T02:13:47.410Z,3.33
2018-06-28T02:16:15.569Z,3.43
2018-06-28T02:18:43.718Z,4.10
2018-06-28T02:21:11.838Z,5.00
2018-06-28T02:28:34.858Z,3.90
2018-06-28T02:31:02.999Z,5.70
2018-06-28T02:33:31.138Z,6.40
2018-06-28T02:35:59.283Z,4.53
2018-06-28T02:38:27.430Z,7.40
2018-06-28T02:40:55.570Z,8.55
2018-06-28T02:43:23.695Z,4.20
2018-06-28T02:45:51.841Z,5.20
2018-06-28T02:48:19.974Z,5.93
2018-06-28T02:50:48.108Z,5.70
2018-06-28T02:53:16.242Z,4.67
2018-06-28T02:55:44.362Z,4.72
2018-06-28T02:58:12.534Z,6.83
2018-06-28T03:00:40.766Z,6.23
2018-06-28T03:03:08.977Z,4.30
2018-06-28T03:05:37.148Z,4.63
2018-06-28T03:08:05.589Z,5.90
2018-06-28T03:10:33.746Z,5.43
2018-06-28T03:13:01.907Z,4.07
2018-06-28T03:15:30.074Z,3.90
2018-06-28T03:17:58.245Z,5.30
2018-06-28T03:20:26.402Z,4.70
2018-06-28T03:22:54.566Z,7.47
2018-06-28T03:25:22.718Z,5.13
2018-06-28T03:27:50.877Z,4.43
2018-06-28T03:30:19.037Z,5.03
2018-06-28T03:32:47.194Z,5.07
2018-06-28T03:35:15.398Z,3.80
2018-06-28T03:37:43.691Z,3.93
2018-06-28T03:40:11.833Z,4.00
2018-06-28T03:42:39.997Z,4.63
2018-06-28T03:45:08.234Z,4.70
2018-06-28T03:47:36.430Z,4.27
2018-06-28T03:50:04.590Z,5.13
2018-06-28T03:52:32.802Z,5.03
2018-06-28T03:55:00.962Z,4.60
2018-06-28T03:57:29.191Z,4.50
2018-06-28T03:59:57.289Z,4.80
2018-06-28T04:02:25.449Z,5.03
2018-06-28T04:14:43.545Z,6.50
2018-06-28T04:17:11.501Z,3.93
2018-06-28T04:19:39.661Z,3.97
2018-06-28T04:22:07.810Z,5.17
2018-06-28T04:24:35.965Z,3.60
2018-06-28T04:27:04.178Z,5.37
2018-06-28T04:29:32.354Z,5.50
2018-06-28T04:32:00.510Z,4.90
2018-06-28T04:34:28.676Z,5.30
2018-06-28T04:36:56.834Z,5.83
2018-06-28T04:39:24.998Z,5.77
2018-06-28T04:41:53.166Z,6.80
2018-06-28T04:44:21.342Z,5.40
2018-06-28T04:46:49.498Z,13.43
2018-06-28T04:49:17.662Z,5.80
2018-06-28T04:51:45.829Z,6.50
2018-06-28T04:54:14.006Z,6.93
2018-06-28T04:56:42.170Z,7.27
2018-06-28T04:59:10.354Z,6.37
2018-06-28T05:01:38.534Z,9.10
2018-06-28T05:04:06.721Z,7.72
2018-06-28T05:06:34.894Z,9.35
2018-06-28T05:09:02.837Z,9.58
2018-06-28T05:11:31.013Z,5.83
2018-06-28T05:13:59.198Z,6.50
2018-06-28T05:16:27.362Z,6.80
2018-06-28T05:18:55.586Z,8.63
2018-06-28T05:21:23.769Z,7.50
2018-06-28T05:23:51.732Z,8.35
2018-06-28T05:26:19.908Z,7.70
2018-06-28T05:28:48.082Z,7.13
2018-06-28T05:31:16.249Z,6.80
2018-06-28T05:33:44.489Z,9.10
2018-06-28T05:36:12.674Z,7.58
2018-06-28T05:38:40.879Z,9.25
2018-06-28T05:41:09.101Z,6.75
2018-06-28T05:43:37.302Z,6.87
2018-06-28T05:46:05.685Z,6.75
2018-06-28T05:48:33.874Z,11.93
2018-06-28T05:51:02.050Z,9.65
2018-06-28T05:53:30.277Z,7.33
2018-06-28T05:55:58.482Z,7.23
2018-06-28T05:58:26.662Z,9.77
2018-06-28T06:00:54.826Z,12.33
2018-06-28T06:03:23.002Z,8.33
2018-06-28T06:05:51.202Z,10.60
2018-06-28T06:08:19.403Z,7.12
2018-06-28T06:10:47.572Z,6.92
2018-06-28T06:13:15.742Z,6.75
2018-06-28T06:15:43.914Z,7.10
2018-06-28T06:18:12.109Z,7.93
2018-06-28T06:20:40.306Z,8.00
2018-06-28T06:23:08.465Z,7.30
2018-06-28T06:25:36.678Z,8.78
2018-06-28T06:28:04.865Z,8.03
2018-06-28T06:30:33.042Z,7.12
2018-06-28T06:33:00.957Z,6.80
2018-06-28T06:35:29.127Z,9.90
2018-06-28T06:37:57.286Z,15.90
2018-06-28T06:40:25.514Z,11.30
2018-06-28T06:42:53.669Z,10.70
2018-06-28T06:45:21.838Z,7.83
2018-06-28T06:47:50.017Z,6.93
2018-06-28T06:50:18.155Z,7.60
2018-06-28T06:52:46.309Z,9.50
2018-06-28T06:55:14.558Z,15.73
2018-06-28T06:57:42.702Z,8.80
2018-06-28T07:00:10.810Z,6.80
2018-06-28T07:02:38.697Z,9.07
2018-06-28T07:44:26.106Z,6.13
2018-06-28T07:46:54.316Z,12.27
2018-06-28T07:49:22.353Z,6.00
2018-06-28T07:51:50.478Z,5.80
2018-06-28T07:54:18.378Z,5.13
2018-06-28T10:02:09.299Z,11.80
2018-06-28T10:04:37.489Z,19.80
2018-06-28T10:07:05.934Z,16.30
2018-06-28T10:09:34.057Z,14.73
2018-06-28T10:12:02.197Z,12.87
2018-06-28T10:14:30.333Z,12.57
2018-06-28T10:16:58.510Z,14.60
2018-06-28T10:19:26.673Z,15.40
2018-06-28T10:21:54.849Z,14.47
2018-06-28T10:26:50.501Z,14.87
2018-06-28T10:29:18.677Z,11.88
2018-06-28T10:31:46.878Z,12.93
2018-06-28T10:34:15.081Z,14.87
2018-06-28T10:36:43.288Z,12.28
2018-06-28T10:39:11.985Z,12.05
2018-06-28T10:41:40.265Z,11.38
2018-06-28T10:44:08.455Z,12.85
2018-06-28T10:46:36.637Z,11.57
2018-06-28T10:49:04.817Z,13.50
2018-06-28T10:51:32.998Z,12.40
2018-06-28T10:54:01.211Z,13.65
2018-06-28T10:56:29.426Z,15.18
2018-06-28T10:58:57.569Z,12.15
2018-06-28T11:01:25.938Z,11.80
2018-06-28T11:03:54.149Z,12.28
2018-06-28T11:06:22.317Z,11.20
2018-06-28T11:08:50.499Z,13.68
2018-06-28T11:11:18.673Z,13.53
2018-06-28T11:13:46.866Z,13.88
2018-06-28T11:16:15.045Z,13.38
2018-06-28T11:18:43.234Z,13.70
2018-06-28T11:21:11.922Z,12.70
2018-06-28T11:23:40.117Z,12.07
2018-06-28T11:26:08.302Z,12.15
2018-06-28T11:28:36.482Z,12.40
2018-06-28T11:31:04.645Z,13.10
2018-06-28T11:33:32.817Z,12.93
2018-06-28T11:36:01.009Z,14.10
2018-06-28T11:38:29.204Z,13.90
2018-06-28T11:40:57.381Z,13.32
2018-06-28T11:43:25.561Z,14.50
2018-06-28T11:45:53.750Z,14.57
2018-06-28T11:48:22.002Z,15.72
2018-06-28T11:50:50.172Z,17.77
2018-06-28T11:53:18.357Z,16.65
2018-06-28T11:55:46.597Z,15.80
2018-06-28T11:58:14.738Z,17.92
2018-06-28T12:00:42.921Z,17.17
2018-06-28T12:03:11.102Z,20.10
2018-06-28T12:05:39.371Z,25.40
2018-06-28T12:08:07.477Z,20.88
2018-06-28T12:10:35.677Z,28.00
2018-06-28T12:13:03.894Z,21.12
2018-06-28T12:15:31.831Z,21.52
2018-06-28T12:17:59.993Z,22.75
2018-06-28T12:20:28.198Z,25.15
2018-06-28T12:22:56.397Z,25.62
2018-06-28T12:25:24.592Z,26.62
2018-06-28T12:27:52.769Z,27.10
2018-06-28T12:30:20.961Z,19.57
2018-06-28T12:32:49.137Z,18.42
2018-06-28T12:35:17.342Z,19.27
2018-06-28T12:37:46.457Z,18.73
2018-06-28T12:40:14.646Z,19.15
2018-06-28T12:42:42.826Z,16.80
2018-06-28T12:45:11.018Z,19.12
2018-06-28T12:47:59.602Z,22.58
2018-06-28T12:50:27.878Z,23.10
2018-06-28T12:53:01.238Z,19.73
2018-06-28T12:55:40.483Z,16.73
2018-06-28T12:58:08.725Z,21.17
2018-06-28T13:00:36.942Z,17.25
2018-06-28T13:03:05.109Z,17.45
2018-06-28T13:05:33.287Z,20.08
2018-06-28T13:08:01.453Z,19.10
2018-06-28T13:10:29.643Z,26.00
2018-06-28T13:12:57.874Z,17.57
2018-06-28T13:15:26.040Z,18.57
2018-06-28T13:17:54.226Z,17.52
2018-06-28T13:20:22.460Z,18.60
2018-06-28T13:22:50.595Z,22.48
2018-06-28T13:25:18.793Z,19.50
2018-06-28T13:27:46.989Z,24.90
2018-06-28T13:30:15.177Z,27.10
2018-06-28T13:32:43.376Z,24.40
2018-06-28T13:35:11.564Z,25.23
2018-06-28T13:37:39.741Z,27.02
2018-06-28T13:40:07.918Z,26.68
2018-06-28T13:42:36.097Z,27.40
2018-06-28T13:45:04.279Z,30.75
2018-06-28T13:47:32.474Z,28.00
2018-06-28T13:50:00.674Z,23.52
2018-06-28T13:52:28.866Z,29.15
2018-06-28T13:54:57.045Z,34.50
2018-06-28T13:57:25.243Z,35.60
2018-06-28T13:59:53.405Z,42.40
2018-06-28T14:02:21.588Z,41.08
2018-06-28T14:04:49.781Z,36.58
2018-06-28T14:07:17.981Z,41.18
2018-06-28T14:09:46.153Z,32.23
2018-06-28T14:12:14.345Z,32.45
2018-06-28T14:14:42.857Z,35.20
2018-06-28T14:17:11.042Z,32.15
2018-06-28T14:19:39.217Z,37.33
2018-06-28T14:22:07.465Z,42.65
2018-06-28T14:24:35.618Z,33.65
2018-06-28T14:27:03.826Z,32.50
2018-06-28T14:29:32.057Z,34.40
2018-06-28T14:32:00.245Z,38.45
2018-06-28T14:34:28.421Z,34.60
2018-06-28T14:36:56.597Z,44.10
2018-06-28T14:39:24.810Z,37.48
2018-06-28T14:41:53.065Z,38.63
2018-06-28T14:44:21.181Z,36.83
2018-06-28T14:46:49.357Z,34.63
2018-06-28T14:49:17.538Z,31.53
2018-06-28T14:51:45.741Z,29.57
2018-06-28T14:54:13.933Z,31.17
2018-06-28T14:56:42.177Z,33.95
2018-06-28T14:59:10.382Z,37.95
2018-06-28T15:01:38.577Z,38.50
2018-06-28T15:04:06.786Z,44.08
2018-06-28T15:06:34.954Z,36.13
2018-06-28T15:09:02.933Z,33.93
2018-06-28T15:11:31.147Z,29.30
2018-06-28T15:13:59.325Z,45.45
2018-06-28T15:16:27.511Z,36.60
2018-06-28T15:18:55.682Z,44.10
2018-06-28T15:21:24.369Z,36.77
2018-06-28T15:23:52.497Z,30.00
2018-06-28T15:26:20.724Z,30.00
2018-06-28T15:28:48.910Z,27.60
2018-06-28T15:31:17.089Z,26.45
2018-06-28T15:33:45.366Z,34.70
2018-06-28T15:36:13.596Z,28.27
2018-06-28T15:38:41.852Z,25.85
2018-06-28T15:41:09.987Z,23.52
2018-06-28T15:43:38.257Z,26.02
2018-06-28T15:46:06.434Z,24.75
2018-06-28T15:48:34.621Z,18.93
2018-06-28T15:51:02.793Z,21.30
2018-06-28T15:53:30.986Z,22.50
2018-06-28T15:55:59.218Z,23.55
2018-06-28T15:58:27.425Z,22.02
2018-06-28T16:00:55.605Z,22.77
2018-06-28T16:03:23.793Z,14.83
2018-06-28T16:05:52.017Z,18.52
2018-06-28T16:08:20.205Z,18.65
2018-06-28T16:10:48.405Z,15.98
2018-06-28T16:13:16.601Z,18.17
2018-06-28T16:15:44.785Z,15.28
2018-06-28T16:18:12.969Z,17.77
2018-06-28T16:20:41.265Z,25.57
2018-06-28T16:23:09.450Z,19.83
2018-06-28T16:25:37.634Z,16.15
2018-06-28T16:28:05.825Z,15.53
2018-06-28T16:30:34.014Z,15.60
2018-06-28T16:33:02.193Z,20.55
2018-06-28T16:35:30.377Z,16.10
2018-06-28T16:37:58.570Z,12.43
2018-06-28T16:40:26.757Z,13.93
2018-06-28T16:42:54.939Z,15.35
2018-06-28T16:45:23.110Z,15.40
2018-06-28T16:47:51.302Z,17.73
2018-06-28T16:50:19.488Z,13.18
2018-06-28T16:52:47.661Z,12.20
2018-06-28T16:55:15.837Z,14.25
2018-06-28T16:57:44.067Z,13.73
2018-06-28T17:00:12.141Z,14.83
2018-06-28T17:02:40.289Z,22.05
2018-06-28T17:05:08.438Z,18.30
2018-06-28T17:07:36.627Z,14.05
2018-06-28T17:10:05.119Z,14.43
2018-06-28T17:12:33.252Z,14.87
2018-06-28T17:15:01.407Z,16.25
2018-06-28T17:17:29.553Z,14.90
2018-06-28T17:19:57.693Z,19.20
2018-06-28T17:22:25.866Z,17.42
2018-06-28T17:24:54.009Z,16.10
2018-06-28T17:27:22.152Z,14.50
2018-06-28T17:29:50.297Z,15.80
2018-06-28T17:32:18.445Z,22.75
2018-06-28T17:34:46.621Z,20.90
2018-06-28T17:37:15.042Z,17.15
2018-06-28T17:39:43.460Z,21.52
2018-06-28T17:42:11.697Z,17.77
2018-06-28T17:44:39.842Z,18.65
2018-06-28T17:47:07.997Z,25.72
2018-06-28T17:49:36.169Z,22.60
2018-06-28T17:52:04.278Z,24.02
2018-06-28T17:54:32.433Z,18.95
2018-06-28T17:57:00.585Z,20.57
2018-06-28T17:59:28.737Z,18.40
2018-06-28T18:01:56.876Z,20.23
2018-06-28T18:04:25.020Z,16.85
2018-06-28T18:06:53.177Z,18.65
2018-06-28T18:09:21.340Z,18.62
2018-06-28T18:11:49.465Z,24.35
2018-06-28T18:14:17.606Z,20.82
2018-06-28T18:16:45.750Z,20.50
2018-06-28T18:19:13.893Z,22.20
2018-06-28T18:21:42.038Z,29.63
2018-06-28T18:24:10.201Z,19.05
2018-06-28T18:26:38.321Z,21.85
2018-06-28T18:29:06.465Z,23.33
2018-06-28T18:31:34.593Z,22.55
2018-06-28T18:34:02.753Z,24.43
2018-06-28T18:36:30.927Z,20.80
2018-06-28T18:38:59.096Z,18.20
2018-06-28T18:41:27.231Z,15.43
2018-06-28T18:43:55.371Z,21.27
2018-06-28T18:46:23.514Z,21.75
2018-06-28T18:48:51.657Z,26.48
2018-06-28T18:51:19.809Z,19.82
2018-06-28T18:53:47.947Z,19.85
2018-06-28T18:56:16.110Z,19.40
2018-06-28T18:58:44.258Z,18.60
2018-06-28T19:01:12.405Z,18.10
2018-06-28T19:03:40.553Z,17.57
2018-06-28T19:06:08.713Z,19.85
2018-06-28T19:08:36.988Z,23.52
2018-06-28T19:11:05.079Z,24.77
2018-06-28T19:13:34.154Z,22.47
2018-06-28T19:16:07.779Z,21.77
2018-06-28T19:18:35.910Z,23.00
2018-06-28T19:21:09.592Z,19.02
2018-06-28T19:23:43.329Z,22.10
2018-06-28T19:26:11.486Z,20.12
2018-06-28T19:28:39.629Z,21.40
2018-06-28T19:31:13.137Z,23.92
2018-06-28T19:33:41.286Z,21.90
2018-06-28T19:36:09.462Z,33.05
2018-06-28T19:38:43.190Z,20.33
2018-06-28T19:41:16.736Z,24.35
2018-06-28T19:43:44.853Z,24.10
2018-06-28T19:46:13.030Z,26.73
2018-06-28T19:48:41.289Z,26.75
2018-06-28T19:51:14.663Z,30.97
2018-06-28T19:53:42.821Z,32.95
2018-06-28T19:56:10.973Z,29.20
2018-06-28T19:58:39.170Z,27.87
2018-06-28T20:01:12.769Z,28.60
2018-06-28T20:03:46.131Z,28.20
2018-06-28T20:06:14.317Z,31.97
2018-06-28T20:08:42.493Z,23.50
2018-06-28T20:11:10.678Z,29.03
2018-06-28T20:13:44.171Z,24.57
2018-06-28T20:16:17.939Z,25.97
2018-06-28T20:18:51.501Z,22.80
2018-06-28T20:21:19.693Z,21.25
2018-06-28T20:23:47.922Z,24.87
2018-06-28T20:26:21.551Z,27.60
2018-06-28T20:28:55.203Z,29.65
2018-06-28T20:31:28.849Z,38.20
2018-06-28T20:34:02.410Z,31.65
2018-06-28T20:36:30.609Z,34.18
2018-06-28T20:38:58.793Z,35.25
2018-06-28T20:41:26.984Z,39.45
2018-06-28T20:43:55.151Z,41.02
2018-06-28T20:46:23.333Z,41.73
2018-06-28T20:48:51.514Z,46.67
2018-06-28T20:51:19.710Z,45.75
2018-06-28T20:53:47.958Z,42.85
2018-06-28T20:56:16.117Z,36.50
2018-06-28T20:58:45.851Z,42.00
2018-06-28T21:01:14.106Z,42.08
2018-06-28T21:03:42.282Z,43.50
2018-06-28T21:06:10.558Z,43.28
2018-06-28T21:08:39.053Z,44.98
2018-06-28T21:11:07.719Z,42.60
2018-06-28T21:13:36.281Z,44.90
2018-06-28T21:16:05.081Z,51.98
2018-06-28T21:18:33.288Z,43.65
2018-06-28T21:21:01.482Z,49.55
2018-06-28T21:23:29.685Z,52.90
2018-06-28T21:25:57.949Z,44.18
2018-06-28T21:28:26.133Z,46.68
2018-06-28T21:30:54.313Z,50.15
2018-06-28T21:33:22.497Z,46.40
2018-06-28T21:35:50.668Z,49.18
2018-06-28T21:38:18.857Z,45.63
2018-06-28T21:40:47.062Z,47.38
2018-06-28T21:43:15.251Z,53.15
2018-06-28T21:45:43.437Z,48.75
2018-06-28T21:48:11.668Z,46.55
2018-06-28T21:50:39.786Z,41.83
2018-06-28T21:53:07.961Z,46.93
2018-06-28T21:55:36.199Z,39.80
2018-06-28T21:58:04.354Z,35.65
2018-06-28T22:00:37.442Z,40.98
2018-06-28T22:03:06.905Z,40.30
2018-06-28T22:05:35.406Z,38.98
2018-06-28T22:08:04.286Z,42.17
2018-06-28T22:10:32.442Z,35.68
2018-06-28T22:13:00.625Z,36.57
2018-06-28T22:15:29.940Z,31.37
2018-06-28T22:17:59.474Z,36.67
2018-06-28T22:20:28.813Z,34.63
2018-06-28T22:22:57.025Z,35.40
2018-06-28T22:25:27.140Z,30.57
2018-06-28T22:27:55.429Z,31.23
2018-06-28T22:30:24.053Z,27.80
2018-06-28T22:32:52.233Z,28.85
2018-06-28T22:35:20.421Z,33.73
2018-06-28T22:37:48.721Z,30.03
2018-06-28T22:40:17.254Z,33.33
2018-06-28T22:42:45.433Z,31.85
2018-06-28T22:45:13.617Z,30.60
2018-06-28T22:47:41.793Z,32.90
2018-06-28T22:50:09.981Z,34.85
2018-06-28T22:52:38.178Z,32.80
2018-06-28T22:55:06.385Z,31.23
2018-06-28T22:57:34.550Z,33.45
2018-06-28T23:00:02.697Z,40.58
2018-06-28T23:02:30.841Z,37.77
2018-06-28T23:04:58.978Z,33.87
2018-06-28T23:07:27.126Z,34.63
2018-06-28T23:09:55.285Z,34.30
2018-06-28T23:12:23.443Z,33.23
2018-06-28T23:14:51.570Z,32.65
2018-06-28T23:17:19.717Z,33.05
2018-06-28T23:19:47.857Z,37.77
2018-06-28T23:22:49.505Z,29.35
2018-06-28T23:25:17.818Z,36.30
2018-06-28T23:27:46.806Z,42.33
2018-06-28T23:30:15.222Z,34.53
2018-06-28T23:32:43.358Z,31.97
2018-06-28T23:35:11.506Z,37.70
2018-06-28T23:37:39.713Z,32.48
2018-06-28T23:40:07.866Z,31.45
2018-06-28T23:42:36.729Z,37.42
2018-06-28T23:45:05.244Z,35.65
2018-06-28T23:47:33.666Z,33.23
2018-06-28T23:50:01.811Z,33.30
2018-06-28T23:52:29.953Z,36.45
2018-06-28T23:54:58.093Z,35.20
2018-06-28T23:57:26.263Z,33.00
2018-06-28T23:59:54.421Z,32.98
